Time;durP1;ratioP1;P1;durP2;ratioP2;P2;SDS_P1;SDS_P2;PMS_P1;PMS_P2;Temp;Humidity;BMP_temperature;BMP_pressure;BME280_temperature;BME280_humidity;BME280_pressure;Samples;Min_cycle;Max_cycle;Signal;HPM_P1;HPM_P2
2023/03/12 00:00:28;;;;;;;12.52;6.82;;;;;;;2.18;76.99;101108.22;4918931;29;20434;-96
2023/03/12 00:02:56;;;;;;;13.82;7.82;;;;;;;2.17;77.38;101107.34;4917095;29;20062;-96
2023/03/12 00:05:24;;;;;;;11.68;6.88;;;;;;;2.17;76.99;101103.84;4915132;29;20030;-96
2023/03/12 00:08:01;;;;;;;13.40;7.00;;;;;;;2.18;76.70;101100.50;4916557;29;20087;-96
2023/03/12 00:10:32;;;;;;;12.68;8.25;;;;;;;2.18;76.71;101088.53;4916833;29;20535;-96
2023/03/12 00:13:01;;;;;;;15.25;7.03;;;;;;;2.18;76.09;101090.22;4930380;29;20635;-96
2023/03/12 00:15:29;;;;;;;14.10;7.18;;;;;;;2.21;75.50;101095.53;4922428;29;20053;-96
2023/03/12 00:18:00;;;;;;;11.48;7.38;;;;;;;2.21;76.19;101096.41;4913293;29;20119;-95
2023/03/12 00:20:26;;;;;;;10.65;6.82;;;;;;;2.22;75.77;101082.78;4918757;29;20117;-96
2023/03/12 00:22:56;;;;;;;12.20;7.38;;;;;;;2.23;76.09;101091.38;4927417;29;20063;-96
2023/03/12 00:25:22;;;;;;;13.88;6.85;;;;;;;2.22;76.35;101077.63;4928290;29;20028;-96
2023/03/12 00:27:50;;;;;;;10.90;6.78;;;;;;;2.23;75.79;101079.41;4928841;29;20046;-96
2023/03/12 00:30:19;;;;;;;13.85;7.10;;;;;;;2.24;76.11;101064.88;4931682;29;20016;-96
2023/03/12 00:32:53;;;;;;;11.45;6.93;;;;;;;2.26;75.37;101065.88;4931482;29;20084;-96
2023/03/12 00:35:19;;;;;;;12.80;6.57;;;;;;;2.26;75.60;101055.59;4919107;29;20031;-96
2023/03/12 00:37:53;;;;;;;12.63;6.90;;;;;;;2.26;75.80;101059.03;4926772;29;20091;-96
2023/03/12 00:40:24;;;;;;;10.55;6.80;;;;;;;2.26;75.51;101059.03;4935427;29;20024;-96
2023/03/12 00:42:58;;;;;;;12.57;7.30;;;;;;;2.24;75.84;101052.91;4938307;29;20028;-96
2023/03/12 00:45:24;;;;;;;12.68;7.90;;;;;;;2.25;77.00;101054.69;4937803;29;20043;-96
2023/03/12 00:47:50;;;;;;;12.23;8.05;;;;;;;2.26;75.30;101053.03;4936848;29;20035;-96
2023/03/12 00:50:31;;;;;;;14.00;8.88;;;;;;;2.26;76.06;101038.47;4934766;29;20038;-96
2023/03/12 00:53:14;;;;;;;13.70;8.57;;;;;;;2.26;76.78;101051.31;4934028;29;20031;-96
2023/03/12 00:55:48;;;;;;;13.27;7.80;;;;;;;2.26;76.45;101047.88;4927738;29;20107;-96
2023/03/12 00:58:13;;;;;;;14.02;7.72;;;;;;;2.26;75.55;101038.47;4918357;29;20016;-95
2023/03/12 01:00:39;;;;;;;13.82;7.72;;;;;;;2.26;76.16;101038.47;4933283;29;20031;-96
2023/03/12 01:03:09;;;;;;;13.10;7.53;;;;;;;2.26;74.76;101032.44;4915796;29;20050;-95
2023/03/12 01:05:44;;;;;;;13.90;7.88;;;;;;;2.25;76.35;101035.81;4913500;29;20035;-96
2023/03/12 01:08:16;;;;;;;13.77;8.52;;;;;;;2.26;76.40;101028.19;4918285;29;21432;-95
2023/03/12 01:10:42;;;;;;;15.43;8.18;;;;;;;2.27;75.34;101036.78;4917209;29;20046;-95
2023/03/12 01:13:12;;;;;;;15.05;8.57;;;;;;;2.26;75.07;101023.03;4920767;29;20031;-94
2023/03/12 01:15:38;;;;;;;15.98;9.95;;;;;;;2.27;75.34;101011.06;4914370;29;20042;-94
2023/03/12 01:18:03;;;;;;;14.38;9.38;;;;;;;2.29;75.86;101013.72;4916010;29;20119;-95
2023/03/12 01:20:32;;;;;;;14.48;9.40;;;;;;;2.28;75.86;101017.13;4927784;29;20032;-96
2023/03/12 01:23:00;;;;;;;15.52;9.43;;;;;;;2.26;76.14;101012.75;4941256;29;20040;-95
2023/03/12 01:25:25;;;;;;;13.40;8.98;;;;;;;2.30;75.84;101018.06;4942187;29;20016;-95
2023/03/12 01:27:56;;;;;;;13.88;9.32;;;;;;;2.29;76.06;101011.16;4925924;29;20151;-96
2023/03/12 01:30:22;;;;;;;13.18;8.23;;;;;;;2.30;74.95;101020.66;4922005;29;20115;-94
2023/03/12 01:32:50;;;;;;;12.60;8.45;;;;;;;2.30;75.55;101025.78;4917673;29;20756;-94
2023/03/12 01:35:16;;;;;;;14.38;9.25;;;;;;;2.32;76.33;101029.31;4911219;29;20023;-94
2023/03/12 01:37:41;;;;;;;14.05;9.02;;;;;;;2.32;76.41;101017.38;4916525;29;20039;-94
2023/03/12 01:40:07;;;;;;;16.23;9.40;;;;;;;2.33;75.94;101016.59;4917642;29;20564;-94
2023/03/12 01:42:35;;;;;;;16.65;9.50;;;;;;;2.34;76.86;101004.63;4922017;29;20027;-95
2023/03/12 01:45:02;;;;;;;14.27;9.20;;;;;;;2.33;75.85;101013.13;4918357;29;20165;-96
2023/03/12 01:47:36;;;;;;;13.43;8.80;;;;;;;2.32;75.58;101007.09;4918473;29;20012;-96
2023/03/12 01:50:02;;;;;;;12.98;9.20;;;;;;;2.33;76.03;101002.84;4918270;29;20070;-95
2023/03/12 01:52:38;;;;;;;14.40;8.82;;;;;;;2.32;75.36;100983.97;4932192;29;20055;-96
2023/03/12 01:55:08;;;;;;;15.55;9.50;;;;;;;2.34;76.09;100987.50;4918348;29;20552;-96
2023/03/12 01:57:47;;;;;;;12.13;7.38;;;;;;;2.34;75.62;100978.91;4918731;29;20027;-96
2023/03/12 02:00:18;;;;;;;12.35;7.43;;;;;;;2.35;75.83;100983.25;4918923;29;20047;-95
2023/03/12 02:02:55;;;;;;;13.07;7.05;;;;;;;2.31;76.62;100981.28;4915506;29;20099;-96
2023/03/12 02:05:47;;;;;;;11.57;7.75;;;;;;;2.30;77.16;100988.09;4912352;29;20489;-96
2023/03/12 02:08:22;;;;;;;15.38;7.28;;;;;;;2.28;76.24;100981.13;4912089;29;20019;-96
2023/03/12 02:10:53;;;;;;;12.90;7.10;;;;;;;2.27;75.71;100967.34;4917311;29;20031;-95
2023/03/12 02:13:21;;;;;;;12.30;7.50;;;;;;;2.28;76.59;100973.41;4914785;29;20028;-95
2023/03/12 02:15:47;;;;;;;12.60;7.53;;;;;;;2.28;75.94;100965.69;4916936;29;20042;-96
2023/03/12 02:18:20;;;;;;;13.52;7.63;;;;;;;2.28;75.87;100957.97;4911655;29;20031;-95
2023/03/12 02:21:09;;;;;;;13.02;7.97;;;;;;;2.29;77.28;100964.88;4918348;29;20064;-95
2023/03/12 02:23:44;;;;;;;11.65;7.25;;;;;;;2.26;77.15;100948.47;4919700;29;20035;-96
2023/03/12 02:26:11;;;;;;;12.30;7.85;;;;;;;2.25;77.27;100954.41;4918672;29;20477;-95
2023/03/12 02:28:54;;;;;;;14.85;8.13;;;;;;;2.26;77.47;100943.34;4917784;29;20083;-95
2023/03/12 02:31:24;;;;;;;14.13;7.30;;;;;;;2.26;76.85;100945.03;4917028;29;20023;-96
2023/03/12 02:33:51;;;;;;;;;;;;;;;2.34;77.32;100948.03;4918208;29;20393;-95
2023/03/12 02:36:21;;;;;;;12.52;7.47;;;;;;;2.29;77.32;100945.22;4917371;29;19930;-95
2023/03/12 02:38:56;;;;;;;13.02;7.45;;;;;;;2.26;77.36;100943.34;4917602;29;20448;-95
2023/03/12 02:41:38;;;;;;;12.25;7.03;;;;;;;2.22;77.88;100946.53;4918823;29;20031;-95
2023/03/12 02:44:09;;;;;;;11.40;7.43;;;;;;;2.22;77.88;100949.09;4914416;29;20040;-95
2023/03/12 02:46:48;;;;;;;13.75;8.13;;;;;;;2.19;77.78;100954.06;4919340;29;20114;-95
2023/03/12 02:49:15;;;;;;;14.57;8.10;;;;;;;2.19;77.76;100959.19;4914208;29;20082;-96
2023/03/12 02:51:45;;;;;;;14.57;9.02;;;;;;;2.19;77.83;100948.03;4913049;29;20079;-96
2023/03/12 02:54:15;;;;;;;12.30;7.78;;;;;;;2.19;78.56;100948.03;4918181;29;20488;-96
2023/03/12 02:56:47;;;;;;;17.42;9.45;;;;;;;2.19;78.40;100945.47;4910534;29;20035;-96
2023/03/12 02:59:16;;;;;;;12.82;8.43;;;;;;;2.19;78.85;100953.19;4914655;29;20028;-95
2023/03/12 03:01:55;;;;;;;12.95;8.38;;;;;;;2.19;78.96;100948.03;4915892;29;20032;-95
2023/03/12 03:04:22;;;;;;;15.45;8.77;;;;;;;2.17;79.64;100929.97;4914787;29;20161;-96
2023/03/12 03:06:51;;;;;;;16.27;8.82;;;;;;;2.16;79.61;100932.41;4911768;29;20027;-95
2023/03/12 03:09:21;;;;;;;15.73;8.60;;;;;;;2.16;79.86;100929.84;4913450;29;20055;-96
2023/03/12 03:11:47;;;;;;;14.68;8.20;;;;;;;2.17;80.13;100940.25;4914199;29;20115;-96
2023/03/12 03:14:15;;;;;;;15.75;8.68;;;;;;;2.17;80.49;100936.78;4920426;29;20027;-96
2023/03/12 03:16:40;;;;;;;14.40;8.63;;;;;;;2.18;80.15;100936.84;4917086;29;20039;-96
2023/03/12 03:19:10;;;;;;;15.20;8.05;;;;;;;2.18;79.78;100935.97;4927946;29;20027;-96
2023/03/12 03:21:38;;;;;;;13.65;8.23;;;;;;;2.18;81.26;100944.56;4936004;29;20027;-96
2023/03/12 03:24:04;;;;;;;14.57;7.85;;;;;;;2.20;81.50;100943.00;4930621;29;20052;-96
2023/03/12 03:26:40;;;;;;;12.07;7.60;;;;;;;2.21;82.14;100938.72;4930785;29;20036;-96
2023/03/12 03:29:12;;;;;;;12.27;6.90;;;;;;;2.20;81.79;100940.41;4957047;29;20027;-96
2023/03/12 03:31:50;;;;;;;15.27;7.80;;;;;;;2.20;82.95;100936.94;4928220;29;20119;-96
2023/03/12 03:34:47;;;;;;;14.70;6.72;;;;;;;2.19;83.12;100938.63;4941419;29;20071;-96
2023/03/12 03:37:13;;;;;;;10.98;6.57;;;;;;;2.23;83.80;100939.69;4962379;23;20106;-60
2023/03/12 03:39:39;;;;;;;13.77;6.30;;;;;;;2.22;83.59;100931.09;4923547;29;20028;-60
2023/03/12 03:42:04;;;;;;;14.93;7.20;;;;;;;2.22;84.44;100925.97;4924017;29;20036;-61
2023/03/12 03:44:29;;;;;;;11.77;6.43;;;;;;;2.21;84.92;100915.59;4923162;29;20036;-61
2023/03/12 03:46:55;;;;;;;13.50;6.45;;;;;;;2.17;85.84;100909.41;4923965;29;20037;-60
2023/03/12 03:49:20;;;;;;;12.10;7.38;;;;;;;2.16;86.04;100912.75;4923211;29;20505;-60
2023/03/12 03:51:46;;;;;;;12.20;6.28;;;;;;;2.16;86.15;100907.63;4922914;29;20063;-60
2023/03/12 03:54:12;;;;;;;13.13;6.25;;;;;;;2.15;86.01;100892.09;4923649;29;20130;-61
2023/03/12 03:56:40;;;;;;;10.68;6.30;;;;;;;2.15;86.56;100882.69;4923285;29;20967;-60
2023/03/12 03:59:05;;;;;;;11.80;6.18;;;;;;;2.17;86.36;100877.66;4922991;29;20020;-60
2023/03/12 04:01:31;;;;;;;9.88;6.05;;;;;;;2.19;85.79;100879.50;4923085;29;20035;-61
2023/03/12 04:03:57;;;;;;;14.35;6.57;;;;;;;2.19;85.97;100878.63;4923126;29;20410;-61
2023/03/12 04:06:22;;;;;;;10.73;6.38;;;;;;;2.19;86.60;100886.34;4922356;29;20038;-60
2023/03/12 04:08:47;;;;;;;14.60;6.65;;;;;;;2.17;86.45;100883.69;4923182;29;20032;-60
2023/03/12 04:11:20;;;;;;;11.55;7.25;;;;;;;2.17;86.14;100878.56;4922603;29;20039;-61
2023/03/12 04:13:46;;;;;;;12.10;7.85;;;;;;;2.19;86.19;100873.50;4922708;29;20499;-60
2023/03/12 04:16:13;;;;;;;13.15;8.10;;;;;;;2.18;86.79;100864.88;4930065;29;20036;-60
2023/03/12 04:18:39;;;;;;;15.38;8.43;;;;;;;2.21;87.49;100859.91;4930221;29;20047;-61
2023/03/12 04:21:06;;;;;;;12.23;7.53;;;;;;;2.19;87.41;100853.81;4931204;29;20035;-61
2023/03/12 04:23:31;;;;;;;12.98;7.55;;;;;;;2.20;86.44;100858.16;4929926;29;20158;-61
2023/03/12 04:25:57;;;;;;;13.75;8.18;;;;;;;2.20;86.24;100852.13;4930834;29;20032;-61
2023/03/12 04:28:22;;;;;;;13.02;7.80;;;;;;;2.18;86.35;100846.88;4929853;29;20024;-61
2023/03/12 04:30:58;;;;;;;15.18;7.82;;;;;;;2.18;86.20;100828.88;4929314;29;20075;-60
2023/03/12 04:33:23;;;;;;;13.13;7.68;;;;;;;2.18;86.31;100822.88;4929679;29;20031;-60
2023/03/12 04:35:51;;;;;;;15.38;7.88;;;;;;;2.16;86.56;100830.50;4930059;29;20031;-60
2023/03/12 04:38:16;;;;;;;13.90;7.93;;;;;;;2.15;87.31;100823.59;4929639;29;20051;-60
2023/03/12 04:40:42;;;;;;;13.25;7.93;;;;;;;2.14;87.17;100821.81;4931288;29;20399;-60
2023/03/12 04:43:07;;;;;;;16.42;8.20;;;;;;;2.15;86.13;100818.44;4929340;29;20043;-60
2023/03/12 04:45:32;;;;;;;13.13;8.18;;;;;;;2.17;85.99;100819.44;4930075;29;20418;-60
2023/03/12 04:47:57;;;;;;;14.60;7.75;;;;;;;2.17;86.36;100814.28;4930586;29;20035;-60
2023/03/12 04:50:23;;;;;;;15.48;7.95;;;;;;;2.18;86.52;100828.88;4930603;29;20035;-60
2023/03/12 04:52:48;;;;;;;16.15;8.27;;;;;;;2.18;86.51;100822.88;4930332;29;20606;-60
2023/03/12 04:55:13;;;;;;;12.43;7.75;;;;;;;2.18;87.51;100813.47;4930286;29;20019;-61
2023/03/12 04:57:39;;;;;;;12.50;8.18;;;;;;;2.17;86.86;100811.72;4929730;29;20045;-61
2023/03/12 05:00:09;;;;;;;13.10;7.15;;;;;;;2.19;87.12;100811.81;4929225;29;20031;-61
2023/03/12 05:02:36;;;;;;;12.43;7.10;;;;;;;2.18;88.00;100798.03;4929677;29;20031;-60
2023/03/12 05:05:01;;;;;;;12.63;6.32;;;;;;;2.19;87.21;100802.41;4929697;29;20031;-61
2023/03/12 05:07:26;;;;;;;10.50;6.20;;;;;;;2.22;87.94;100800.00;4930418;29;20509;-60
2023/03/12 05:09:51;;;;;;;12.95;6.40;;;;;;;2.24;88.47;100793.25;4929214;29;20028;-60
2023/03/12 05:12:17;;;;;;;12.75;6.07;;;;;;;2.26;88.24;100777.94;4928539;29;20050;-60
2023/03/12 05:14:42;;;;;;;12.38;6.28;;;;;;;2.28;88.06;100765.16;4928537;29;20031;-61
2023/03/12 05:17:07;;;;;;;11.52;5.85;;;;;;;2.28;88.08;100771.19;4929431;29;20999;-60
2023/03/12 05:19:33;;;;;;;10.02;5.40;;;;;;;2.29;89.15;100778.09;4929861;29;20028;-60
2023/03/12 05:21:58;;;;;;;12.68;6.18;;;;;;;2.28;89.32;100773.75;4930187;29;20051;-60
2023/03/12 05:24:23;;;;;;;12.60;6.28;;;;;;;2.28;89.65;100773.75;4911353;29;20019;-60
2023/03/12 05:26:49;;;;;;;15.23;6.10;;;;;;;2.28;90.75;100770.31;4930334;29;20464;-61
2023/03/12 05:29:14;;;;;;;12.07;6.07;;;;;;;2.26;91.05;100771.09;4929841;29;20027;-61
2023/03/12 05:31:40;;;;;;;12.98;6.22;;;;;;;2.26;92.23;100760.81;4928973;29;20523;-61
2023/03/12 05:34:05;;;;;;;11.68;6.10;;;;;;;2.25;92.27;100753.88;4930031;29;20047;-61
2023/03/12 05:36:30;;;;;;;10.45;5.80;;;;;;;2.24;93.23;100769.22;4928899;29;20028;-61
2023/03/12 05:38:56;;;;;;;11.07;6.30;;;;;;;2.22;94.27;100755.41;4927101;29;20047;-61
2023/03/12 05:41:24;;;;;;;14.27;5.95;;;;;;;2.19;94.85;100765.53;4928793;29;20542;-61
2023/03/12 05:43:51;;;;;;;12.32;6.53;;;;;;;2.17;95.34;100765.44;4929013;29;20435;-61
2023/03/12 05:46:17;;;;;;;11.13;5.70;;;;;;;2.16;96.17;100760.19;4928797;29;20504;-61
2023/03/12 05:48:42;;;;;;;10.80;6.55;;;;;;;2.17;96.76;100755.16;4928005;29;20610;-61
2023/03/12 05:51:07;;;;;;;11.23;6.25;;;;;;;2.16;96.54;100755.97;4928670;29;21151;-61
2023/03/12 05:53:33;;;;;;;13.27;6.00;;;;;;;2.18;97.13;100756.91;4929235;29;20039;-61
2023/03/12 05:56:10;;;;;;;12.52;6.70;;;;;;;2.18;96.91;100759.50;4928784;29;20036;-61
2023/03/12 05:58:36;;;;;;;11.00;5.70;;;;;;;2.18;97.85;100756.03;4928977;29;20590;-61
2023/03/12 06:01:09;;;;;;;11.40;5.95;;;;;;;2.19;97.78;100758.69;4927573;29;20031;-61
2023/03/12 06:03:34;;;;;;;13.98;6.18;;;;;;;2.19;98.42;100748.41;4926889;29;21040;-61
2023/03/12 06:06:00;;;;;;;12.57;6.57;;;;;;;2.19;98.42;100751.00;4929237;29;20055;-61
2023/03/12 06:08:25;;;;;;;12.13;6.50;;;;;;;2.21;98.83;100751.94;4929078;29;20124;-61
2023/03/12 06:10:53;;;;;;;12.63;5.70;;;;;;;2.22;99.01;100765.72;4929104;29;20054;-61
2023/03/12 06:13:19;;;;;;;10.77;5.95;;;;;;;2.23;99.11;100762.31;4926153;29;20574;-61
2023/03/12 06:15:44;;;;;;;13.57;6.30;;;;;;;2.25;99.85;100766.75;4928730;29;20023;-61
2023/03/12 06:18:10;;;;;;;12.55;6.00;;;;;;;2.26;99.46;100768.53;4929156;29;20019;-61
2023/03/12 06:20:35;;;;;;;11.80;6.40;;;;;;;2.29;99.60;100764.34;4929241;29;20526;-61
2023/03/12 06:23:00;;;;;;;11.35;6.05;;;;;;;2.32;99.77;100770.56;4927920;29;20034;-61
2023/03/12 06:25:26;;;;;;;13.50;6.18;;;;;;;2.35;99.98;100782.69;4928820;29;20637;-61
2023/03/12 06:27:51;;;;;;;10.05;5.78;;;;;;;2.39;99.79;100780.38;4928136;29;20041;-61
2023/03/12 06:30:16;;;;;;;11.88;6.50;;;;;;;2.41;100.00;100770.19;4928523;29;20034;-61
2023/03/12 06:32:42;;;;;;;11.05;6.03;;;;;;;2.43;100.00;100759.19;4927922;29;20028;-61
2023/03/12 06:35:07;;;;;;;11.75;6.00;;;;;;;2.44;100.00;100760.06;4928408;29;20816;-61
2023/03/12 06:37:33;;;;;;;14.68;6.32;;;;;;;2.45;100.00;100754.13;4928052;29;20051;-61
2023/03/12 06:39:58;;;;;;;12.15;6.18;;;;;;;2.46;100.00;100750.72;4928850;29;20019;-61
2023/03/12 06:42:25;;;;;;;13.43;6.50;;;;;;;2.47;100.00;100749.06;4928775;29;20102;-61
2023/03/12 06:44:51;;;;;;;13.15;6.85;;;;;;;2.46;100.00;100747.28;4928394;29;20043;-61
2023/03/12 06:47:16;;;;;;;13.00;7.32;;;;;;;2.45;100.00;100748.97;4911329;29;20023;-61
2023/03/12 06:49:41;;;;;;;15.27;7.10;;;;;;;2.46;100.00;100743.00;4929060;29;20051;-61
2023/03/12 06:52:07;;;;;;;15.80;7.68;;;;;;;2.47;100.00;100738.78;4928906;29;20031;-61
2023/03/12 06:54:32;;;;;;;15.50;7.30;;;;;;;2.45;100.00;100723.25;4927107;29;20051;-61
2023/03/12 06:56:58;;;;;;;12.80;6.75;;;;;;;2.48;100.00;100723.41;4928929;29;20032;-61
2023/03/12 06:59:24;;;;;;;11.82;7.18;;;;;;;2.47;100.00;100731.06;4929037;29;20077;-60
2023/03/12 07:01:50;;;;;;;13.98;7.22;;;;;;;2.47;100.00;100723.34;4928346;29;20039;-60
2023/03/12 07:04:15;;;;;;;13.05;6.70;;;;;;;2.47;100.00;100720.78;4928713;29;20039;-60
2023/03/12 07:06:41;;;;;;;13.95;7.07;;;;;;;2.46;100.00;100714.72;4928917;29;20395;-60
2023/03/12 07:09:06;;;;;;;11.93;6.40;;;;;;;2.46;100.00;100717.28;4927615;29;20044;-60
2023/03/12 07:11:31;;;;;;;15.38;7.30;;;;;;;2.48;100.00;100719.94;4927689;29;20161;-60
2023/03/12 07:13:57;;;;;;;14.95;7.10;;;;;;;2.49;100.00;100708.88;4928493;29;20035;-60
2023/03/12 07:16:22;;;;;;;12.05;6.88;;;;;;;2.48;100.00;100712.22;4928625;29;20031;-60
2023/03/12 07:18:48;;;;;;;14.10;7.22;;;;;;;2.48;100.00;100713.13;4928127;29;20029;-61
2023/03/12 07:21:21;;;;;;;15.75;7.68;;;;;;;2.50;100.00;100713.22;4928586;29;20395;-60
2023/03/12 07:23:47;;;;;;;14.00;7.60;;;;;;;2.50;100.00;100728.66;4928584;29;20079;-61
2023/03/12 07:26:12;;;;;;;16.88;8.07;;;;;;;2.49;100.00;100720.06;4927464;29;20171;-60
2023/03/12 07:28:37;;;;;;;15.85;7.43;;;;;;;2.52;100.00;100725.38;4928155;29;20032;-60
2023/03/12 07:31:03;;;;;;;13.82;7.28;;;;;;;2.55;100.00;100737.47;4928276;29;20038;-61
2023/03/12 07:33:29;;;;;;;15.10;7.85;;;;;;;2.57;100.00;100731.63;4928431;29;20063;-61
2023/03/12 07:35:54;;;;;;;17.85;8.00;;;;;;;2.59;100.00;100732.59;4928432;29;20034;-60
2023/03/12 07:38:19;;;;;;;14.00;7.68;;;;;;;2.59;100.00;100724.91;4927806;29;20040;-60
2023/03/12 07:40:49;;;;;;;14.55;7.53;;;;;;;2.61;100.00;100731.00;4926894;29;20553;-61
2023/03/12 07:43:15;;;;;;;15.68;7.85;;;;;;;2.65;100.00;100737.19;4927918;29;20098;-61
2023/03/12 07:45:40;;;;;;;14.25;8.35;;;;;;;2.68;100.00;100728.75;4928117;29;20047;-60
2023/03/12 07:48:06;;;;;;;14.55;8.38;;;;;;;2.69;100.00;100725.38;4928003;29;20034;-60
2023/03/12 07:50:32;;;;;;;13.60;8.13;;;;;;;2.71;100.00;100734.03;4926582;29;20043;-60
2023/03/12 07:52:57;;;;;;;15.35;8.07;;;;;;;2.75;100.00;100735.97;4926632;29;20033;-61
2023/03/12 07:55:23;;;;;;;15.45;8.48;;;;;;;2.77;100.00;100729.25;4926800;29;20114;-60
2023/03/12 07:57:48;;;;;;;15.20;8.05;;;;;;;2.81;100.00;100731.19;4927823;29;20207;-60
2023/03/12 08:00:14;;;;;;;15.48;8.95;;;;;;;2.85;100.00;100727.94;4929417;29;21031;-61
2023/03/12 08:02:39;;;;;;;16.23;9.57;;;;;;;2.88;100.00;100727.22;4930050;29;20048;-60
2023/03/12 08:05:05;;;;;;;19.38;9.32;;;;;;;2.92;100.00;100730.03;4930983;29;20167;-60
2023/03/12 08:07:31;;;;;;;17.38;9.30;;;;;;;2.97;100.00;100720.00;4931589;29;20328;-60
2023/03/12 08:09:58;;;;;;;19.48;9.57;;;;;;;3.03;100.00;100719.44;4930922;29;20063;-60
2023/03/12 08:12:23;;;;;;;18.45;9.68;;;;;;;3.08;100.00;100724.00;4929982;29;20035;-61
2023/03/12 08:14:48;;;;;;;19.58;10.32;;;;;;;3.13;100.00;100727.72;4930355;29;20035;-60
2023/03/12 08:17:14;;;;;;;15.13;9.18;;;;;;;3.20;100.00;100722.88;4931040;29;20571;-61
2023/03/12 08:19:39;;;;;;;19.60;10.18;;;;;;;3.23;100.00;100726.50;4930077;29;20036;-60
2023/03/12 08:22:05;;;;;;;15.27;9.07;;;;;;;3.28;100.00;100732.75;4930515;29;20106;-61
2023/03/12 08:24:30;;;;;;;18.25;9.77;;;;;;;3.34;100.00;100723.59;4930820;29;20039;-61
2023/03/12 08:26:56;;;;;;;15.82;9.13;;;;;;;3.39;100.00;100729.84;4930364;29;20079;-60
2023/03/12 08:29:21;;;;;;;17.38;9.38;;;;;;;3.44;100.00;100734.41;4930233;29;20034;-60
2023/03/12 08:31:46;;;;;;;16.60;9.23;;;;;;;3.50;100.00;100730.38;4929388;29;20050;-60
2023/03/12 08:34:12;;;;;;;17.30;9.68;;;;;;;3.54;100.00;100722.88;4931042;29;20538;-60
2023/03/12 08:36:37;;;;;;;14.82;8.93;;;;;;;3.60;100.00;100733.50;4930752;29;20118;-61
2023/03/12 08:39:02;;;;;;;15.70;8.90;;;;;;;3.68;100.00;100735.56;4929746;29;20044;-60
2023/03/12 08:41:29;;;;;;;15.95;8.98;;;;;;;3.72;100.00;100743.53;4929590;29;20511;-61
2023/03/12 08:43:54;;;;;;;16.20;9.38;;;;;;;3.77;100.00;100736.91;4930537;29;20031;-61
2023/03/12 08:46:20;;;;;;;16.50;9.02;;;;;;;3.85;100.00;100745.00;4929940;29;20038;-60
2023/03/12 08:48:45;;;;;;;16.65;9.55;;;;;;;3.90;100.00;100747.84;4930313;29;20052;-61
2023/03/12 08:51:11;;;;;;;14.93;8.93;;;;;;;3.96;100.00;100754.16;4912239;29;20399;-61
2023/03/12 08:53:36;;;;;;;18.98;10.02;;;;;;;4.04;100.00;100751.06;4929249;29;20040;-61
2023/03/12 08:56:02;;;;;;;16.50;9.73;;;;;;;4.10;100.00;100756.50;4929310;29;20031;-61
2023/03/12 08:58:28;;;;;;;19.50;9.32;;;;;;;4.17;100.00;100761.16;4930729;29;20039;-60
2023/03/12 09:00:54;;;;;;;19.85;10.68;;;;;;;4.25;100.00;100756.38;4958660;23;20087;-60
2023/03/12 09:03:24;;;;;;;22.10;10.13;;;;;;;4.31;100.00;100760.13;4944003;23;20164;-96
2023/03/12 09:06:12;;;;;;;18.80;10.43;;;;;;;4.38;100.00;100753.56;4907388;29;20047;-95
2023/03/12 09:08:43;;;;;;;24.83;11.45;;;;;;;4.46;100.00;100757.41;4904577;29;20032;-96
2023/03/12 09:11:20;;;;;;;20.85;11.75;;;;;;;4.53;100.00;100763.72;4911375;29;20033;-96
2023/03/12 09:13:45;;;;;;;25.63;12.55;;;;;;;4.63;100.00;100765.91;4923755;23;20011;-61
2023/03/12 09:16:10;;;;;;;30.05;12.57;;;;;;;4.73;100.00;100761.19;4922269;29;20028;-62
2023/03/12 09:18:36;;;;;;;31.75;14.38;;;;;;;4.85;100.00;100764.31;4922496;29;20039;-62
2023/03/12 09:21:02;;;;;;;34.22;15.90;;;;;;;4.97;100.00;100757.13;4920523;29;20032;-62
2023/03/12 09:23:27;;;;;;;33.15;14.95;;;;;;;5.11;100.00;100754.28;4920600;29;20042;-62
2023/03/12 09:25:53;;;;;;;36.72;15.90;;;;;;;5.22;100.00;100750.47;4917801;29;20023;-62
2023/03/12 09:28:18;;;;;;;34.70;16.02;;;;;;;5.33;100.00;100750.91;4920799;29;20299;-62
2023/03/12 09:30:45;;;;;;;35.85;17.00;;;;;;;5.42;100.00;100756.50;4921091;29;20031;-62
2023/03/12 09:33:11;;;;;;;36.83;17.15;;;;;;;5.51;100.00;100758.59;4920658;29;20032;-62
2023/03/12 09:35:36;;;;;;;38.50;17.77;;;;;;;5.58;100.00;100764.06;4921116;29;20450;-62
2023/03/12 09:38:02;;;;;;;36.95;16.88;;;;;;;5.65;100.00;100756.56;4921781;29;20047;-62
2023/03/12 09:40:32;;;;;;;44.92;18.13;;;;;;;5.74;100.00;100760.44;4920262;29;20032;-62
2023/03/12 09:43:03;;;;;;;41.63;18.55;;;;;;;5.83;100.00;100756.47;4921681;29;20043;-62
2023/03/12 09:45:37;;;;;;;42.63;18.58;;;;;;;5.91;100.00;100757.69;4921707;29;20028;-62
2023/03/12 09:48:05;;;;;;;44.88;19.50;;;;;;;5.99;100.00;100758.88;4921885;29;20036;-62
2023/03/12 09:50:39;;;;;;;43.38;19.17;;;;;;;6.07;100.00;100764.41;4921243;29;20059;-62
2023/03/12 09:53:29;;;;;;;49.50;19.98;;;;;;;6.17;100.00;100763.03;4921778;29;20043;-61
2023/03/12 09:55:57;;;;;;;46.95;20.10;;;;;;;6.23;100.00;100776.25;4982853;23;20149;-60
2023/03/12 09:58:34;;;;;;;51.00;20.35;;;;;;;6.29;100.00;100771.31;4951286;23;20142;-60
2023/03/12 10:01:27;;;;;;;52.80;20.25;;;;;;;6.37;100.00;100779.34;4919261;29;20114;-60
2023/03/12 10:04:19;;;;;;;48.35;20.13;;;;;;;6.44;100.00;100784.84;4876482;29;20054;-60
2023/03/12 10:06:54;;;;;;;45.72;20.35;;;;;;;6.50;100.00;100788.50;4920655;29;20035;-60
2023/03/12 10:09:47;;;;;;;51.13;20.27;;;;;;;6.56;100.00;100791.31;4919753;29;20138;-60
2023/03/12 10:12:24;;;;;;;53.90;20.70;;;;;;;6.63;100.00;100782.09;4919404;29;20682;-60
2023/03/12 10:15:21;;;;;;;53.15;20.42;;;;;;;6.71;100.00;100785.88;4920584;29;20075;-60
2023/03/12 10:18:16;;;;;;;52.28;21.02;;;;;;;6.79;100.00;100787.00;4921003;29;20032;-60
2023/03/12 10:21:07;;;;;;;54.10;21.98;;;;;;;6.88;100.00;100778.72;4921171;29;20035;-60
2023/03/12 10:24:01;;;;;;;56.75;22.08;;;;;;;6.95;100.00;100775.53;4920159;29;20150;-59
2023/03/12 10:26:41;;;;;;;55.40;19.73;;;;;;;7.02;100.00;100774.06;4911355;29;20071;-60
2023/03/12 10:29:21;;;;;;;55.60;21.25;;;;;;;7.06;100.00;100778.53;4920814;29;20577;-61
2023/03/12 10:32:15;;;;;;;53.90;20.55;;;;;;;7.08;100.00;100780.34;4919949;29;20435;-60
2023/03/12 10:34:57;;;;;;;63.92;21.95;;;;;;;7.12;100.00;100782.19;4920229;29;20063;-60
2023/03/12 10:37:28;;;;;;;61.30;21.63;;;;;;;7.17;100.00;100776.31;4920392;29;20039;-60
2023/03/12 10:39:54;;;;;;;66.03;22.83;;;;;;;7.22;100.00;100785.16;4921000;29;20604;-60
2023/03/12 10:42:25;;;;;;;71.07;22.85;;;;;;;7.27;100.00;100781.00;4919375;29;20375;-60
2023/03/12 10:44:54;;;;;;;70.68;23.33;;;;;;;7.33;100.00;100786.44;4919931;29;20083;-60
2023/03/12 10:47:22;;;;;;;64.22;23.60;;;;;;;7.39;100.00;100778.84;4918048;29;20040;-60
2023/03/12 10:49:49;;;;;;;71.80;22.40;;;;;;;7.45;100.00;100773.88;4919996;29;20035;-60
2023/03/12 10:52:15;;;;;;;74.95;23.50;;;;;;;7.54;100.00;100773.31;4920630;29;20082;-60
2023/03/12 10:54:43;;;;;;;71.32;23.55;;;;;;;7.59;100.00;100765.69;4920804;29;20071;-60
2023/03/12 10:57:09;;;;;;;69.85;23.52;;;;;;;7.69;100.00;100769.50;4912081;29;20516;-60
2023/03/12 10:59:41;;;;;;;76.05;24.70;;;;;;;7.75;100.00;100775.78;4901128;29;20036;-60
2023/03/12 11:02:30;;;;;;;77.13;24.83;;;;;;;7.81;100.00;100782.88;4902476;29;20485;-60
2023/03/12 11:04:57;;;;;;;84.93;24.52;;;;;;;7.87;100.00;100774.44;4902252;29;20029;-61
2023/03/12 11:07:26;;;;;;;75.68;24.05;;;;;;;7.91;100.00;100771.13;4901578;29;20039;-60
2023/03/12 11:10:06;;;;;;;71.63;21.98;;;;;;;7.99;100.00;100772.22;4902636;29;20036;-61
2023/03/12 11:12:34;;;;;;;74.30;21.48;;;;;;;8.08;100.00;100785.53;4901380;29;20416;-60
2023/03/12 11:15:19;;;;;;;73.90;22.52;;;;;;;8.18;100.00;100777.19;4901563;29;20108;-60
2023/03/12 11:17:44;;;;;;;67.03;21.88;;;;;;;8.27;100.00;100775.72;4901834;29;20072;-60
2023/03/12 11:20:26;;;;;;;73.43;22.05;;;;;;;8.34;100.00;100781.16;4902179;29;20028;-60
2023/03/12 11:22:52;;;;;;;70.03;21.40;;;;;;;8.39;100.00;100791.69;4901265;29;20519;-60
2023/03/12 11:25:26;;;;;;;64.40;20.25;;;;;;;8.41;100.00;100789.13;4901617;29;20040;-61
2023/03/12 11:27:54;;;;;;;66.53;20.73;;;;;;;8.44;100.00;100792.72;4900348;29;20396;-60